createdAt,value
2023-03-17T00:01:25.125Z,101134.28
2023-03-17T00:03:53.107Z,101147.38
2023-03-17T00:06:28.590Z,101138.31
2023-03-17T00:08:57.590Z,101133.78
2023-03-17T00:11:27.702Z,101130.56
2023-03-17T00:13:55.737Z,101137.22
2023-03-17T00:16:27.132Z,101137.22
2023-03-17T00:18:56.786Z,101139.00
2023-03-17T00:21:28.430Z,101137.97
2023-03-17T00:23:57.406Z,101141.13
2023-03-17T00:26:25.461Z,101145.13
2023-03-17T00:28:54.490Z,101148.78
2023-03-17T00:31:26.416Z,101140.56
2023-03-17T00:33:55.979Z,101145.56
2023-03-17T00:36:26.057Z,101155.88
2023-03-17T00:38:53.962Z,101150.78
2023-03-17T00:41:22.463Z,101147.56
2023-03-17T00:43:50.756Z,101149.69
2023-03-17T00:46:24.465Z,101150.88
2023-03-17T00:48:54.365Z,101156.31
2023-03-17T00:51:23.425Z,101164.34
2023-03-17T00:53:51.933Z,101158.44
2023-03-17T00:56:22.197Z,101157.06
2023-03-17T00:58:50.522Z,101161.63
2023-03-17T01:01:20.052Z,101155.16
2023-03-17T01:03:48.006Z,101160.38
2023-03-17T01:06:18.105Z,101162.31
2023-03-17T01:08:46.625Z,101158.50
2023-03-17T01:11:18.805Z,101164.41
2023-03-17T01:13:47.130Z,101177.25
2023-03-17T01:16:15.904Z,101159.53
2023-03-17T01:18:44.345Z,101180.91
2023-03-17T01:21:12.747Z,101176.84
2023-03-17T01:23:43.709Z,101179.44
2023-03-17T01:26:11.837Z,101183.56
2023-03-17T01:28:39.792Z,101182.72
2023-03-17T01:31:07.781Z,101183.72
2023-03-17T01:33:35.672Z,101183.69
2023-03-17T01:36:03.689Z,101186.25
2023-03-17T01:38:31.593Z,101183.97
2023-03-17T01:41:03.437Z,101180.78
2023-03-17T01:43:31.957Z,101182.56
2023-03-17T01:46:21.934Z,101183.59
2023-03-17T01:48:56.016Z,101199.88
2023-03-17T01:51:29.590Z,101194.00
2023-03-17T01:53:58.567Z,101202.44
2023-03-17T01:56:28.345Z,101201.59
2023-03-17T01:58:58.330Z,101209.50
2023-03-17T02:01:32.095Z,101213.03
2023-03-17T02:04:01.020Z,101206.25
2023-03-17T02:06:29.632Z,101214.84
2023-03-17T02:08:57.731Z,101215.00
2023-03-17T02:11:27.410Z,101209.88
2023-03-17T02:13:55.668Z,101212.41
2023-03-17T02:16:23.825Z,101221.31
2023-03-17T02:18:51.800Z,101220.94
2023-03-17T02:21:42.817Z,101221.69
2023-03-17T02:24:17.653Z,101232.75
2023-03-17T02:26:48.466Z,101231.91
2023-03-17T02:29:16.785Z,101232.09
2023-03-17T02:31:45.873Z,101237.13
2023-03-17T02:34:13.861Z,101239.91
2023-03-17T02:36:43.254Z,101251.00
2023-03-17T02:39:11.206Z,101247.75
2023-03-17T02:41:39.152Z,101249.28
2023-03-17T02:44:07.288Z,101245.94
2023-03-17T02:46:35.767Z,101251.31
2023-03-17T02:49:04.407Z,101258.06
2023-03-17T02:51:33.187Z,101261.44
2023-03-17T02:54:02.525Z,101264.88
2023-03-17T02:56:31.079Z,101268.09
2023-03-17T02:58:58.963Z,101270.69
2023-03-17T03:01:27.410Z,101275.81
2023-03-17T03:03:55.353Z,101263.91
2023-03-17T03:06:23.821Z,101270.50
2023-03-17T03:08:52.062Z,101277.28
2023-03-17T03:11:21.609Z,101272.31
2023-03-17T03:13:49.522Z,101273.59
2023-03-17T03:16:17.732Z,101244.47
2023-03-17T03:18:45.693Z,101281.53
2023-03-17T03:21:13.913Z,101286.56
2023-03-17T03:23:41.898Z,101289.91
2023-03-17T03:26:09.888Z,101284.78
2023-03-17T03:28:39.210Z,101282.09
2023-03-17T03:31:07.528Z,101292.94
2023-03-17T03:33:35.603Z,101291.94
2023-03-17T03:36:03.858Z,101294.50
2023-03-17T03:38:31.852Z,101292.06
2023-03-17T03:40:59.768Z,101297.16
2023-03-17T03:43:27.825Z,101289.47
2023-03-17T03:45:57.272Z,101294.31
2023-03-17T03:48:25.265Z,101289.88
2023-03-17T03:50:57.843Z,101302.63
2023-03-17T03:53:25.875Z,101304.56
2023-03-17T03:55:54.245Z,101297.88
2023-03-17T03:58:22.578Z,101305.31
2023-03-17T04:00:50.593Z,101302.63
2023-03-17T04:03:20.285Z,101305.94
2023-03-17T04:05:48.253Z,101311.00
2023-03-17T04:08:16.553Z,101288.09
2023-03-17T04:10:44.655Z,101311.38
2023-03-17T04:13:12.964Z,101314.53
2023-03-17T04:15:40.984Z,101298.34
2023-03-17T04:18:09.778Z,101311.00
2023-03-17T04:20:39.658Z,101320.22
2023-03-17T04:23:08.006Z,101333.81
2023-03-17T04:25:36.749Z,101335.31
2023-03-17T04:28:05.090Z,101337.53
2023-03-17T04:30:33.329Z,101340.63
2023-03-17T04:33:01.363Z,101341.25
2023-03-17T04:35:29.338Z,101340.41
2023-03-17T04:37:58.637Z,101342.00
2023-03-17T04:40:27.509Z,101339.44
2023-03-17T04:42:55.504Z,101346.25
2023-03-17T04:45:23.480Z,101346.34
2023-03-17T04:47:51.419Z,101341.25
2023-03-17T04:50:19.466Z,101350.56
2023-03-17T04:52:47.357Z,101345.06
2023-03-17T04:55:16.695Z,101338.13
2023-03-17T04:57:45.256Z,101348.34
2023-03-17T05:00:15.584Z,101354.00
2023-03-17T05:02:44.224Z,101351.41
2023-03-17T05:05:12.328Z,101361.69
2023-03-17T05:07:40.210Z,101329.38
2023-03-17T05:10:09.481Z,101366.13
2023-03-17T05:12:38.975Z,101366.63
2023-03-17T05:15:08.032Z,101371.53
2023-03-17T05:17:35.984Z,101372.19
2023-03-17T05:20:04.375Z,101379.94
2023-03-17T05:22:32.590Z,101372.44
2023-03-17T05:25:00.552Z,101379.00
2023-03-17T05:27:28.447Z,101383.63
2023-03-17T05:29:57.778Z,101384.88
2023-03-17T05:32:25.845Z,101381.25
2023-03-17T05:34:53.818Z,101386.81
2023-03-17T05:37:21.771Z,101384.00
2023-03-17T05:39:49.707Z,101399.00
2023-03-17T05:42:17.620Z,101388.50
2023-03-17T05:44:45.553Z,101400.94
2023-03-17T05:47:14.954Z,101397.00
2023-03-17T05:49:42.935Z,101400.16
2023-03-17T05:52:10.978Z,101401.81
2023-03-17T05:54:38.970Z,101408.03
2023-03-17T05:57:07.775Z,101400.50
2023-03-17T05:59:36.275Z,101416.78
2023-03-17T06:02:04.294Z,101423.06
2023-03-17T06:04:34.060Z,101423.69
2023-03-17T06:07:02.012Z,101431.03
2023-03-17T06:09:30.064Z,101436.28
2023-03-17T06:11:58.039Z,101430.56
2023-03-17T06:14:27.160Z,101435.75
2023-03-17T06:16:55.772Z,101443.88
2023-03-17T06:19:23.837Z,101452.75
2023-03-17T06:21:53.320Z,101450.16
2023-03-17T06:24:21.322Z,101456.41
2023-03-17T06:26:49.250Z,101453.78
2023-03-17T06:29:17.158Z,101464.31
2023-03-17T06:31:50.547Z,101465.88
2023-03-17T06:34:18.931Z,101447.47
2023-03-17T06:36:47.239Z,101475.97
2023-03-17T06:39:18.204Z,101473.63
2023-03-17T06:41:46.211Z,101472.59
2023-03-17T06:44:14.294Z,101476.88
2023-03-17T06:46:42.574Z,101475.00
2023-03-17T06:49:13.519Z,101470.31
2023-03-17T06:51:41.624Z,101446.28
2023-03-17T06:54:09.728Z,101474.66
2023-03-17T06:56:39.024Z,101473.66
2023-03-17T06:59:06.957Z,101469.50
2023-03-17T07:01:34.945Z,101480.56
2023-03-17T07:04:02.930Z,101483.84
2023-03-17T07:06:31.072Z,101475.09
2023-03-17T07:09:01.971Z,101466.69
2023-03-17T07:11:30.828Z,101492.63
2023-03-17T07:14:00.582Z,101491.41
2023-03-17T07:16:28.983Z,101488.75
2023-03-17T07:18:57.148Z,101490.06
2023-03-17T07:21:25.089Z,101486.69
2023-03-17T07:23:53.024Z,101483.50
2023-03-17T07:26:20.940Z,101487.25
2023-03-17T07:28:49.177Z,101489.22
2023-03-17T07:31:18.550Z,101483.97
2023-03-17T07:33:47.006Z,101492.28
2023-03-17T07:36:15.921Z,101485.00
2023-03-17T07:38:44.370Z,101480.69
2023-03-17T07:41:12.360Z,101480.47
2023-03-17T07:43:40.586Z,101482.22
2023-03-17T07:46:08.608Z,101480.34
2023-03-17T07:48:42.138Z,101482.31
2023-03-17T07:51:15.572Z,101478.59
2023-03-17T07:53:45.177Z,101480.44
2023-03-17T07:56:14.265Z,101484.75
2023-03-17T07:58:42.179Z,101486.59
2023-03-17T08:01:10.167Z,101487.78
2023-03-17T08:03:41.561Z,101486.69
2023-03-17T08:06:09.868Z,101485.38
2023-03-17T08:08:37.751Z,101481.19
2023-03-17T08:11:07.753Z,101498.03
2023-03-17T08:13:35.955Z,101496.75
2023-03-17T08:16:03.913Z,101483.44
2023-03-17T08:18:32.078Z,101486.56
2023-03-17T08:21:02.248Z,101480.97
2023-03-17T08:23:30.296Z,101484.72
2023-03-17T08:25:58.974Z,101478.72
2023-03-17T08:28:28.003Z,101479.22
2023-03-17T08:30:57.900Z,101478.00
2023-03-17T08:33:25.941Z,101482.59
2023-03-17T08:35:54.199Z,101478.72
2023-03-17T08:38:23.557Z,101477.94
2023-03-17T08:40:51.730Z,101467.69
2023-03-17T08:43:19.773Z,101472.88
2023-03-17T08:45:48.244Z,101471.66
2023-03-17T08:48:16.195Z,101469.13
2023-03-17T08:50:44.152Z,101470.47
2023-03-17T08:53:12.078Z,101463.06
2023-03-17T08:55:41.348Z,101462.50
2023-03-17T08:58:09.659Z,101457.31
2023-03-17T09:00:37.637Z,101467.44
2023-03-17T09:03:05.929Z,101472.44
2023-03-17T09:05:36.264Z,101475.53
2023-03-17T09:08:06.338Z,101466.94
2023-03-17T09:10:34.475Z,101470.22
2023-03-17T09:13:04.779Z,101466.19
2023-03-17T09:15:34.063Z,101459.94
2023-03-17T09:18:03.322Z,101458.03
2023-03-17T09:20:31.686Z,101463.13
2023-03-17T09:23:00.878Z,101459.47
2023-03-17T09:25:28.921Z,101459.94
2023-03-17T09:27:57.221Z,101460.59
2023-03-17T09:30:27.248Z,101462.63
2023-03-17T09:32:55.200Z,101458.72
2023-03-17T09:35:23.453Z,101461.13
2023-03-17T09:37:51.649Z,101460.78
2023-03-17T09:40:22.502Z,101452.09
2023-03-17T09:43:07.210Z,101455.09
2023-03-17T09:45:38.924Z,101456.94
2023-03-17T09:48:46.461Z,101446.19
2023-03-17T09:51:18.483Z,101457.19
2023-03-17T09:53:52.806Z,101450.88
2023-03-17T09:56:21.229Z,101452.25
2023-03-17T09:58:53.762Z,101451.69
2023-03-17T10:01:23.954Z,101452.31
2023-03-17T10:03:52.300Z,101453.66
2023-03-17T10:06:33.657Z,101449.44
2023-03-17T10:09:12.796Z,101452.00
2023-03-17T10:11:43.487Z,101446.25
2023-03-17T10:14:38.359Z,101441.69
2023-03-17T10:17:14.010Z,101454.69
2023-03-17T10:19:46.090Z,101450.78
2023-03-17T10:22:19.519Z,101447.00
2023-03-17T10:24:52.948Z,101442.69
2023-03-17T10:27:21.720Z,101440.63
2023-03-17T10:29:49.754Z,101442.03
2023-03-17T10:32:19.033Z,101433.63
2023-03-17T10:34:48.792Z,101431.03
2023-03-17T10:37:19.685Z,101439.47
2023-03-17T10:39:49.361Z,101434.69
2023-03-17T10:42:24.584Z,101432.09
2023-03-17T10:44:56.834Z,101435.84
2023-03-17T10:47:33.303Z,101432.63
2023-03-17T10:50:05.631Z,101431.63
2023-03-17T10:52:39.641Z,101424.81
2023-03-17T10:55:09.165Z,101417.25
2023-03-17T10:57:38.956Z,101413.69
2023-03-17T11:00:16.698Z,101412.22
2023-03-17T11:02:52.516Z,101422.44
2023-03-17T11:05:23.027Z,101417.13
2023-03-17T11:07:51.697Z,101417.34
2023-03-17T11:10:22.164Z,101414.78
2023-03-17T11:12:58.797Z,101402.03
2023-03-17T11:15:33.813Z,101411.53
2023-03-17T11:18:05.645Z,101406.72
2023-03-17T11:20:47.112Z,101400.88
2023-03-17T11:23:26.545Z,101411.31
2023-03-17T11:26:06.759Z,101412.81
2023-03-17T11:28:39.793Z,101412.06
2023-03-17T11:31:13.195Z,101409.03
2023-03-17T11:33:50.854Z,101401.59
2023-03-17T11:36:37.391Z,101404.34
2023-03-17T11:39:13.696Z,101407.78
2023-03-17T11:41:52.285Z,101405.06
2023-03-17T11:44:53.737Z,101406.50
2023-03-17T11:47:33.049Z,101406.09
2023-03-17T11:50:10.100Z,101408.31
2023-03-17T11:52:55.353Z,101397.72
2023-03-17T11:55:28.652Z,101400.22
2023-03-17T11:58:00.019Z,101406.25
2023-03-17T12:00:33.749Z,101408.16
2023-03-17T12:03:09.606Z,101405.28
2023-03-17T12:05:39.893Z,101404.69
2023-03-17T12:08:15.350Z,101401.75
2023-03-17T12:10:49.562Z,101406.22
2023-03-17T12:13:19.715Z,101408.28
2023-03-17T12:15:53.115Z,101396.56
2023-03-17T12:18:27.319Z,101387.50
2023-03-17T12:21:01.693Z,101395.09
2023-03-17T12:23:38.346Z,101395.59
2023-03-17T12:26:10.834Z,101402.34
2023-03-17T12:28:45.254Z,101391.50
2023-03-17T12:31:18.448Z,101383.47
2023-03-17T12:33:52.043Z,101384.06
2023-03-17T12:36:23.072Z,101392.16
2023-03-17T12:38:56.906Z,101394.94
2023-03-17T12:41:34.986Z,101393.63
2023-03-17T12:44:08.012Z,101391.69
2023-03-17T12:46:54.131Z,101400.06
2023-03-17T12:49:52.512Z,101395.94
2023-03-17T12:52:41.234Z,101406.44
2023-03-17T12:55:13.559Z,101393.34
2023-03-17T12:57:43.816Z,101393.50
2023-03-17T13:00:25.282Z,101391.97
2023-03-17T13:03:13.364Z,101394.13
2023-03-17T13:05:47.129Z,101385.19
2023-03-17T13:08:22.817Z,101386.66
2023-03-17T13:10:51.284Z,101384.66
2023-03-17T13:13:41.817Z,101377.25
2023-03-17T13:16:28.075Z,101375.66
2023-03-17T13:19:18.739Z,101380.78
2023-03-17T13:21:50.789Z,101384.00
2023-03-17T13:24:42.575Z,101387.22
2023-03-17T13:27:15.220Z,101376.50
2023-03-17T13:29:46.107Z,101378.63
2023-03-17T13:32:38.376Z,101373.81
2023-03-17T13:35:16.842Z,101373.69
2023-03-17T13:38:13.635Z,101377.63
2023-03-17T13:40:54.029Z,101376.72
2023-03-17T13:43:43.420Z,101370.97
2023-03-17T13:46:22.347Z,101355.34
2023-03-17T13:48:50.934Z,101364.13
2023-03-17T13:51:22.578Z,101376.13
2023-03-17T13:53:55.556Z,101369.78
2023-03-17T13:56:27.932Z,101362.13
2023-03-17T13:59:15.118Z,101359.34
2023-03-17T14:01:49.013Z,101370.06
2023-03-17T14:04:21.704Z,101369.78
2023-03-17T14:06:53.262Z,101368.59
2023-03-17T14:09:32.666Z,101370.41
2023-03-17T14:12:07.196Z,101368.56
2023-03-17T14:14:47.193Z,101371.44
2023-03-17T14:17:20.361Z,101372.50
2023-03-17T14:20:19.738Z,101369.19
2023-03-17T14:22:49.620Z,101361.34
2023-03-17T14:25:19.772Z,101363.03
2023-03-17T14:27:52.587Z,101369.19
2023-03-17T14:30:23.309Z,101364.56
2023-03-17T14:32:56.242Z,101365.25
2023-03-17T14:35:24.224Z,101358.06
2023-03-17T14:37:52.129Z,101361.28
2023-03-17T14:40:23.386Z,101364.28
2023-03-17T14:42:52.889Z,101363.50
2023-03-17T14:45:28.140Z,101346.44
2023-03-17T14:47:56.868Z,101357.94
2023-03-17T14:50:28.743Z,101359.06
2023-03-17T14:52:58.704Z,101367.28
2023-03-17T14:55:35.842Z,101367.06
2023-03-17T14:58:11.063Z,101358.50
2023-03-17T15:00:44.943Z,101355.66
2023-03-17T15:03:19.588Z,101366.94
2023-03-17T15:05:49.056Z,101361.59
2023-03-17T15:08:47.018Z,101356.28
2023-03-17T15:11:24.961Z,101351.50
2023-03-17T15:14:04.884Z,101356.75
2023-03-17T15:16:36.592Z,101357.06
2023-03-17T15:19:08.501Z,101356.25
2023-03-17T15:21:40.993Z,101359.91
2023-03-17T15:24:27.360Z,101348.25
2023-03-17T15:27:01.471Z,101356.25
2023-03-17T15:29:31.146Z,101352.75
2023-03-17T15:32:04.784Z,101345.88
2023-03-17T15:34:32.777Z,101354.59
2023-03-17T15:37:01.049Z,101350.31
2023-03-17T15:39:28.988Z,101351.56
2023-03-17T15:41:56.904Z,101342.44
2023-03-17T15:44:24.795Z,101356.25
2023-03-17T15:46:54.431Z,101359.97
2023-03-17T15:49:25.250Z,101359.97
2023-03-17T15:51:54.715Z,101353.09
2023-03-17T15:54:22.851Z,101352.16
2023-03-17T15:56:50.953Z,101349.88
2023-03-17T15:59:18.858Z,101355.44
2023-03-17T16:01:46.977Z,101348.56
2023-03-17T16:04:17.987Z,101347.25
2023-03-17T16:06:47.952Z,101345.06
2023-03-17T16:09:17.658Z,101356.00
2023-03-17T16:11:45.844Z,101356.44
2023-03-17T16:14:13.793Z,101352.03
2023-03-17T16:16:45.856Z,101348.81
2023-03-17T16:19:20.436Z,101359.06
2023-03-17T16:21:49.101Z,101359.66
2023-03-17T16:24:20.379Z,101359.75
2023-03-17T16:26:48.570Z,101355.81
2023-03-17T16:29:18.042Z,101360.31
2023-03-17T16:31:48.995Z,101355.81
2023-03-17T16:34:20.799Z,101360.09
2023-03-17T16:36:50.408Z,101350.72
2023-03-17T16:39:19.306Z,101365.81
2023-03-17T16:41:48.235Z,101362.88
2023-03-17T16:44:19.026Z,101362.00
2023-03-17T16:46:47.045Z,101368.97
2023-03-17T16:49:16.617Z,101358.41
2023-03-17T16:51:46.448Z,101363.09
2023-03-17T16:54:14.601Z,101363.28
2023-03-17T16:56:43.500Z,101361.34
2023-03-17T16:59:19.198Z,101369.50
2023-03-17T17:01:47.193Z,101378.97
2023-03-17T17:04:15.143Z,101373.72
2023-03-17T17:06:43.094Z,101366.59
2023-03-17T17:09:12.368Z,101372.13
2023-03-17T17:11:40.335Z,101387.06
2023-03-17T17:14:08.565Z,101379.09
2023-03-17T17:16:39.909Z,101393.63
2023-03-17T17:19:16.670Z,101384.50
2023-03-17T17:21:45.798Z,101388.63
2023-03-17T17:24:16.413Z,101385.84
2023-03-17T17:26:44.391Z,101390.50
2023-03-17T17:29:12.309Z,101393.75
2023-03-17T17:31:40.971Z,101403.59
2023-03-17T17:34:08.985Z,101397.72
2023-03-17T17:36:36.954Z,101397.34
2023-03-17T17:39:05.004Z,101401.44
2023-03-17T17:41:34.967Z,101404.66
2023-03-17T17:44:03.023Z,101408.72
2023-03-17T17:46:31.018Z,101411.28
2023-03-17T17:48:58.993Z,101412.69
2023-03-17T17:51:28.755Z,101421.75
2023-03-17T17:53:56.794Z,101407.09
2023-03-17T17:56:25.040Z,101417.84
2023-03-17T17:58:54.356Z,101413.72
2023-03-17T18:01:22.806Z,101417.06
2023-03-17T18:03:50.750Z,101415.56
2023-03-17T18:06:18.706Z,101415.47
2023-03-17T18:08:47.003Z,101419.00
2023-03-17T18:11:14.963Z,101418.47
2023-03-17T18:13:42.874Z,101420.22
2023-03-17T18:16:19.775Z,101408.28
2023-03-17T18:18:47.801Z,101423.22
2023-03-17T18:21:16.236Z,101424.94
2023-03-17T18:23:47.285Z,101418.69
2023-03-17T18:26:16.162Z,101428.94
2023-03-17T18:28:44.237Z,101428.47
2023-03-17T18:31:17.446Z,101422.34
2023-03-17T18:33:47.009Z,101430.75
2023-03-17T18:36:15.485Z,101423.88
2023-03-17T18:38:43.420Z,101430.41
2023-03-17T18:41:12.435Z,101429.22
2023-03-17T18:43:41.052Z,101433.31
2023-03-17T18:46:09.010Z,101434.63
2023-03-17T18:48:38.369Z,101435.22
2023-03-17T18:51:06.985Z,101420.25
2023-03-17T18:53:35.458Z,101443.91
2023-03-17T18:56:03.855Z,101441.78
2023-03-17T18:58:31.978Z,101440.72
2023-03-17T19:01:02.062Z,101444.94
2023-03-17T19:03:32.254Z,101455.22
2023-03-17T19:06:08.910Z,101457.91
2023-03-17T19:08:37.214Z,101452.56
2023-03-17T19:11:06.776Z,101453.34
2023-03-17T19:13:34.776Z,101457.63
2023-03-17T19:16:03.014Z,101456.22
2023-03-17T19:18:30.990Z,101458.72
2023-03-17T19:20:58.913Z,101444.34
2023-03-17T19:23:28.289Z,101457.78
2023-03-17T19:25:56.363Z,101459.50
2023-03-17T19:28:24.528Z,101462.06
2023-03-17T19:30:52.529Z,101453.56
2023-03-17T19:33:20.481Z,101453.16
2023-03-17T19:35:55.054Z,101451.88
2023-03-17T19:38:23.212Z,101450.16
2023-03-17T19:40:53.047Z,101456.63
2023-03-17T19:43:39.143Z,101451.38
2023-03-17T19:46:08.971Z,101445.97
2023-03-17T19:48:37.569Z,101442.72
2023-03-17T19:51:07.104Z,101450.50
2023-03-17T19:53:35.239Z,101441.91
2023-03-17T19:56:05.516Z,101446.25
2023-03-17T19:58:33.656Z,101448.09
2023-03-17T20:01:01.786Z,101438.13
2023-03-17T20:03:29.773Z,101434.84
2023-03-17T20:05:57.734Z,101444.50
2023-03-17T20:08:25.737Z,101442.00
2023-03-17T20:10:53.964Z,101443.03
2023-03-17T20:13:23.593Z,101439.00
2023-03-17T20:15:52.959Z,101438.47
2023-03-17T20:18:23.100Z,101446.66
2023-03-17T20:20:54.256Z,101444.53
2023-03-17T20:23:22.776Z,101442.00
2023-03-17T20:25:52.350Z,101443.72
2023-03-17T20:28:21.469Z,101441.28
2023-03-17T20:30:50.975Z,101441.28
2023-03-17T20:33:19.009Z,101379.81
2023-03-17T20:35:48.152Z,101437.34
2023-03-17T20:38:16.693Z,101435.56
2023-03-17T20:40:44.650Z,101438.56
2023-03-17T20:43:13.014Z,101436.88
2023-03-17T20:45:42.659Z,101435.06
2023-03-17T20:48:12.098Z,101439.34
2023-03-17T20:50:41.050Z,101429.78
2023-03-17T20:53:08.962Z,101431.53
2023-03-17T20:55:37.621Z,101432.34
2023-03-17T20:58:05.906Z,101433.19
2023-03-17T21:00:34.270Z,101434.88
2023-03-17T21:03:02.778Z,101440.91
2023-03-17T21:05:32.761Z,101438.63
2023-03-17T21:08:01.242Z,101437.63
2023-03-17T21:10:30.848Z,101442.88
2023-03-17T21:12:58.961Z,101430.78
2023-03-17T21:15:26.945Z,101428.09
2023-03-17T21:17:55.291Z,101426.38
2023-03-17T21:20:25.298Z,101417.75
2023-03-17T21:22:54.635Z,101435.75
2023-03-17T21:25:22.685Z,101430.47
2023-03-17T21:27:51.853Z,101429.44
2023-03-17T21:30:19.934Z,101427.06
2023-03-17T21:32:48.169Z,101417.50
2023-03-17T21:35:16.330Z,101423.63
2023-03-17T21:37:44.237Z,101416.78
2023-03-17T21:40:15.782Z,101422.31
2023-03-17T21:42:44.222Z,101418.69
2023-03-17T21:45:12.743Z,101421.13
2023-03-17T21:47:40.966Z,101418.59
2023-03-17T21:50:09.556Z,101414.41
2023-03-17T21:52:37.581Z,101419.59
2023-03-17T21:55:07.487Z,101420.81
2023-03-17T21:57:38.680Z,101427.22
2023-03-17T22:00:09.711Z,101423.44
2023-03-17T22:02:38.197Z,101413.69
2023-03-17T22:05:07.021Z,101412.97
2023-03-17T22:07:35.140Z,101417.94
2023-03-17T22:10:06.308Z,101421.47
2023-03-17T22:12:34.333Z,101414.69
2023-03-17T22:15:04.454Z,101419.31
2023-03-17T22:17:32.809Z,101420.00
2023-03-17T22:20:00.727Z,101415.72
2023-03-17T22:22:28.850Z,101419.19
2023-03-17T22:24:57.392Z,101425.94
2023-03-17T22:27:25.410Z,101425.53
2023-03-17T22:29:53.732Z,101421.97
2023-03-17T22:32:23.384Z,101424.44
2023-03-17T22:34:51.357Z,101421.69
2023-03-17T22:37:19.300Z,101423.44
2023-03-17T22:39:47.264Z,101412.34
2023-03-17T22:42:15.234Z,101422.56
2023-03-17T22:44:43.212Z,101418.31
2023-03-17T22:47:11.614Z,101425.41
2023-03-17T22:49:41.010Z,101421.75
2023-03-17T22:52:09.094Z,101419.88
2023-03-17T22:54:37.072Z,101420.63
2023-03-17T22:57:05.732Z,101423.28
2023-03-17T22:59:33.841Z,101422.44
2023-03-17T23:02:01.831Z,101423.28
2023-03-17T23:04:29.788Z,101419.75
2023-03-17T23:06:59.208Z,101414.72
2023-03-17T23:09:27.142Z,101415.38
2023-03-17T23:11:55.077Z,101418.16
2023-03-17T23:14:23.548Z,101377.78
2023-03-17T23:16:51.564Z,101418.34
2023-03-17T23:19:19.501Z,101412.28
2023-03-17T23:21:47.484Z,101409.63
2023-03-17T23:24:16.877Z,101412.00
2023-03-17T23:26:44.931Z,101415.56
2023-03-17T23:29:12.849Z,101416.19
2023-03-17T23:31:41.048Z,101418.72
2023-03-17T23:34:10.037Z,101410.78
2023-03-17T23:36:40.215Z,101418.31
2023-03-17T23:39:08.644Z,101410.63
2023-03-17T23:41:38.005Z,101411.41
2023-03-17T23:44:06.665Z,101404.59
2023-03-17T23:46:34.713Z,101408.13
2023-03-17T23:49:02.836Z,101407.41
2023-03-17T23:51:30.738Z,101406.69
2023-03-17T23:53:59.207Z,101402.72
2023-03-17T23:56:27.518Z,101405.38
2023-03-17T23:58:56.815Z,101404.41
